Time,TemperatureF,DewpointF,PressureIn,WindDirection,WindDirectionDegrees,WindSpeedMPH,WindSpeedGustMPH,Humidity,HourlyPrecipIn,Conditions,Clouds,dailyrainin,SoftwareType,DateUTC
2013-05-10 04:47:00,42.6,28.4,29.85,ENE,60,4.0,6.7,57,0.00,,,-99.99,FreeWX 2.04,2013-05-10 08:47:00,
2013-05-10 07:23:00,38.1,32.2,29.85,ENE,59,3.0,6.9,79,0.00,,,-99.99,FreeWX 2.04,2013-05-10 11:23:00,
2013-05-10 07:28:00,38.3,32.7,29.85,ENE,60,5.0,11.2,80,0.00,,,-99.99,FreeWX 2.04,2013-05-10 11:28:00,
2013-05-10 07:33:00,38.1,32.5,29.85,ENE,58,5.0,7.8,80,0.00,,,-99.99,FreeWX 2.04,2013-05-10 11:33:00,
2013-05-10 07:38:00,38.1,32.9,29.85,ENE,60,4.0,11.6,81,0.04,,,-99.99,FreeWX 2.04,2013-05-10 11:38:00,
2013-05-10 07:43:00,38.1,32.9,29.85,ENE,57,4.0,10.1,81,0.04,,,-99.99,FreeWX 2.04,2013-05-10 11:43:00,
2013-05-10 07:49:00,38.3,33.3,29.85,NE,53,5.0,10.1,82,0.08,,,-99.99,FreeWX 2.04,2013-05-10 11:49:00,
2013-05-10 07:54:00,37.9,32.9,29.85,ENE,58,5.0,10.5,82,0.08,,,-99.99,FreeWX 2.04,2013-05-10 11:54:00,
2013-05-10 07:59:00,38.1,33.4,29.85,ENE,58,5.0,11.2,83,0.08,,,-99.99,FreeWX 2.04,2013-05-10 11:59:00,
2013-05-10 08:04:00,38.3,33.6,29.85,ENE,64,5.0,12.1,83,0.08,,,-99.99,FreeWX 2.04,2013-05-10 12:04:00,
2013-05-10 08:09:00,37.9,33.6,29.85,ENE,64,5.0,14.3,84,0.08,,,-99.99,FreeWX 2.04,2013-05-10 12:09:00,
2013-05-10 08:14:00,37.9,33.6,29.85,ENE,60,5.0,11.6,84,0.12,,,-99.99,FreeWX 2.04,2013-05-10 12:14:00,
2013-05-10 08:19:00,38.1,34.0,29.85,NE,56,4.0,6.9,85,0.12,,,-99.99,FreeWX 2.04,2013-05-10 12:19:00,
2013-05-10 08:29:00,38.1,34.0,29.85,NE,53,4.0,12.1,85,0.12,,,-99.99,FreeWX 2.04,2013-05-10 12:29:00,
2013-05-10 08:34:00,37.9,33.8,29.85,ENE,59,5.0,9.6,85,0.12,,,-99.99,FreeWX 2.04,2013-05-10 12:34:00,
2013-05-10 08:39:00,37.9,33.8,29.85,NE,56,4.0,10.5,85,0.12,,,-99.99,FreeWX 2.04,2013-05-10 12:39:00,
2013-05-10 08:44:00,37.9,34.2,29.85,NE,56,4.0,9.2,86,0.12,,,-99.99,FreeWX 2.04,2013-05-10 12:44:00,
2013-05-10 08:49:00,37.9,34.2,29.85,ENE,66,4.0,10.5,86,0.12,,,-99.99,FreeWX 2.04,2013-05-10 12:49:00,
2013-05-10 08:54:00,37.9,34.2,29.85,ENE,63,5.0,11.2,86,0.12,,,-99.99,FreeWX 2.04,2013-05-10 12:54:00,
2013-05-10 08:59:00,37.9,34.2,29.85,ENE,59,5.0,9.2,86,0.12,,,-99.99,FreeWX 2.04,2013-05-10 12:59:00,
2013-05-10 09:04:00,38.1,34.3,29.85,NE,56,4.0,8.3,86,0.16,,,-99.99,FreeWX 2.04,2013-05-10 13:04:00,
2013-05-10 09:09:00,38.1,34.5,29.85,NE,49,3.0,6.7,87,0.16,,,-99.99,FreeWX 2.04,2013-05-10 13:09:00,
2013-05-10 09:14:00,38.1,34.5,29.85,NE,48,4.0,9.6,87,0.16,,,-99.99,FreeWX 2.04,2013-05-10 13:14:00,
2013-05-10 09:19:00,37.9,34.3,29.85,NE,52,5.0,11.0,87,0.16,,,-99.99,FreeWX 2.04,2013-05-10 13:19:00,
2013-05-10 09:24:00,37.9,34.3,29.85,NE,50,5.0,15.4,87,0.16,,,-99.99,FreeWX 2.04,2013-05-10 13:24:00,
2013-05-10 09:29:00,38.1,34.5,29.85,NE,49,4.0,9.6,87,0.16,,,-99.99,FreeWX 2.04,2013-05-10 13:29:00,
2013-05-10 09:34:00,38.1,34.5,29.85,NE,51,4.0,10.1,87,0.16,,,-99.99,FreeWX 2.04,2013-05-10 13:34:00,
2013-05-10 09:39:00,37.9,34.3,29.85,NE,50,4.0,7.8,87,0.16,,,-99.99,FreeWX 2.04,2013-05-10 13:39:00,
2013-05-10 09:44:00,37.9,34.3,29.85,NE,51,4.0,8.3,87,0.16,,,-99.99,FreeWX 2.04,2013-05-10 13:44:00,
2013-05-10 09:49:00,38.1,34.9,29.85,ENE,58,4.0,8.3,88,0.12,,,-99.99,FreeWX 2.04,2013-05-10 13:49:00,
2013-05-10 09:54:00,38.1,34.9,29.82,ENE,57,4.0,9.2,88,0.12,,,-99.99,FreeWX 2.04,2013-05-10 13:54:00,
2013-05-10 09:59:00,38.1,34.9,29.82,NE,56,5.0,10.5,88,0.08,,,-99.99,FreeWX 2.04,2013-05-10 13:59:00,
2013-05-10 10:04:00,38.1,34.9,29.82,ENE,58,5.0,10.5,88,0.12,,,-99.99,FreeWX 2.04,2013-05-10 14:04:00,
2013-05-10 10:09:00,38.1,34.9,29.82,NE,52,4.0,11.0,88,0.12,,,-99.99,FreeWX 2.04,2013-05-10 14:09:00,
2013-05-10 10:14:00,38.3,35.1,29.82,NE,52,4.0,8.3,88,0.08,,,-99.99,FreeWX 2.04,2013-05-10 14:14:00,
2013-05-10 10:19:00,38.5,35.2,29.82,ENE,60,5.0,9.2,88,0.08,,,-99.99,FreeWX 2.04,2013-05-10 14:19:00,
2013-05-10 10:24:00,38.5,35.2,29.82,ENE,57,4.0,10.1,88,0.08,,,-99.99,FreeWX 2.04,2013-05-10 14:24:00,
2013-05-10 10:29:00,38.5,35.2,29.82,NE,48,4.0,12.5,88,0.08,,,-99.99,FreeWX 2.04,2013-05-10 14:29:00,
2013-05-10 10:34:00,38.5,35.2,29.82,NE,39,4.0,7.8,88,0.12,,,-99.99,FreeWX 2.04,2013-05-10 14:34:00,
2013-05-10 10:39:00,38.3,35.4,29.82,NE,44,4.0,9.6,89,0.12,,,-99.99,FreeWX 2.04,2013-05-10 14:39:00,
2013-05-10 10:44:00,38.5,35.2,29.82,NE,55,4.0,8.3,88,0.12,,,-99.99,FreeWX 2.04,2013-05-10 14:44:00,
2013-05-10 10:49:00,38.8,35.6,29.82,ENE,58,4.0,10.1,88,0.12,,,-99.99,FreeWX 2.04,2013-05-10 14:49:00,
2013-05-10 10:54:00,38.7,35.8,29.82,NE,54,4.0,11.0,89,0.12,,,-99.99,FreeWX 2.04,2013-05-10 14:54:00,
2013-05-10 10:59:00,38.5,35.2,29.82,NE,49,4.0,12.5,88,0.12,,,-99.99,FreeWX 2.04,2013-05-10 14:59:00,
2013-05-10 11:04:00,38.5,35.2,29.82,NE,56,4.0,7.8,88,0.08,,,-99.99,FreeWX 2.04,2013-05-10 15:04:00,
2013-05-10 11:09:00,38.5,35.2,29.82,ENE,59,4.0,8.7,88,0.08,,,-99.99,FreeWX 2.04,2013-05-10 15:09:00,
2013-05-10 11:14:00,38.5,35.6,29.82,ENE,57,4.0,8.3,89,0.08,,,-99.99,FreeWX 2.04,2013-05-10 15:14:00,
2013-05-10 11:19:00,38.5,35.6,29.82,ENE,58,4.0,11.6,89,0.12,,,-99.99,FreeWX 2.04,2013-05-10 15:19:00,
2013-05-10 11:24:00,38.5,35.6,29.79,ENE,58,4.0,8.3,89,0.12,,,-99.99,FreeWX 2.04,2013-05-10 15:24:00,
2013-05-10 11:29:00,38.5,35.6,29.79,NE,45,4.0,15.2,89,0.12,,,-99.99,FreeWX 2.04,2013-05-10 15:29:00,
2013-05-10 11:34:00,38.5,35.6,29.79,NE,48,4.0,10.5,89,0.04,,,-99.99,FreeWX 2.04,2013-05-10 15:34:00,
2013-05-10 11:39:00,38.5,35.6,29.79,NE,54,4.0,8.3,89,0.04,,,-99.99,FreeWX 2.04,2013-05-10 15:39:00,
2013-05-10 11:44:00,38.3,35.4,29.79,NE,42,4.0,8.3,89,0.04,,,-99.99,FreeWX 2.04,2013-05-10 15:44:00,
2013-05-10 11:49:00,38.5,35.6,29.79,NE,52,4.0,9.6,89,0.04,,,-99.99,FreeWX 2.04,2013-05-10 15:49:00,
2013-05-10 11:54:00,38.5,35.6,29.82,ENE,68,3.0,7.4,89,0.04,,,-99.99,FreeWX 2.04,2013-05-10 15:54:00,
2013-05-10 11:59:00,38.1,35.2,29.82,ENE,61,3.0,10.1,89,0.04,,,-99.99,FreeWX 2.04,2013-05-10 15:59:00,
2013-05-10 12:04:00,38.3,35.4,29.82,NE,54,4.0,9.6,89,0.04,,,-99.99,FreeWX 2.04,2013-05-10 16:04:00,
2013-05-10 12:09:00,38.1,35.2,29.82,ENE,60,5.0,10.5,89,0.04,,,-99.99,FreeWX 2.04,2013-05-10 16:09:00,
2013-05-10 12:14:00,38.1,35.2,29.82,NE,56,5.0,8.7,89,0.04,,,-99.99,FreeWX 2.04,2013-05-10 16:14:00,
2013-05-10 12:19:00,38.1,35.2,29.82,NE,43,3.0,7.4,89,0.00,,,-99.99,FreeWX 2.04,2013-05-10 16:19:00,
2013-05-10 12:24:00,37.9,35.1,29.82,NE,51,4.0,12.5,89,0.00,,,-99.99,FreeWX 2.04,2013-05-10 16:24:00,
2013-05-10 12:29:00,38.1,35.2,29.82,NE,56,5.0,12.1,89,0.00,,,-99.99,FreeWX 2.04,2013-05-10 16:29:00,
2013-05-10 12:34:00,38.1,35.2,29.82,ENE,57,4.0,9.2,89,0.00,,,-99.99,FreeWX 2.04,2013-05-10 16:34:00,
2013-05-10 12:39:00,38.1,35.2,29.82,ENE,57,4.0,13.4,89,0.00,,,-99.99,FreeWX 2.04,2013-05-10 16:39:00,
2013-05-10 12:44:00,38.1,35.4,29.82,NE,37,3.0,9.6,90,0.04,,,-99.99,FreeWX 2.04,2013-05-10 16:44:00,
2013-05-10 12:49:00,38.1,35.4,29.82,NE,36,4.0,8.7,90,0.04,,,-99.99,FreeWX 2.04,2013-05-10 16:49:00,
2013-05-10 12:54:00,38.1,35.4,29.82,NE,55,4.0,7.8,90,0.04,,,-99.99,FreeWX 2.04,2013-05-10 16:54:00,
2013-05-10 12:59:00,38.3,35.6,29.82,NE,54,4.0,7.4,90,0.04,,,-99.99,FreeWX 2.04,2013-05-10 16:59:00,
2013-05-10 13:04:00,38.1,35.4,29.82,NE,50,4.0,11.2,90,0.04,,,-99.99,FreeWX 2.04,2013-05-10 17:04:00,
2013-05-10 13:09:00,38.1,35.4,29.82,NE,51,4.0,9.2,90,0.04,,,-99.99,FreeWX 2.04,2013-05-10 17:09:00,
2013-05-10 13:14:00,38.3,35.6,29.82,NE,53,4.0,8.3,90,0.04,,,-99.99,FreeWX 2.04,2013-05-10 17:14:00,
2013-05-10 13:19:00,38.5,35.8,29.82,NE,55,4.0,11.0,90,0.04,,,-99.99,FreeWX 2.04,2013-05-10 17:19:00,
2013-05-10 13:24:00,38.3,35.6,29.82,NE,53,4.0,11.0,90,0.08,,,-99.99,FreeWX 2.04,2013-05-10 17:24:00,
2013-05-10 13:29:00,38.7,36.0,29.82,NE,43,4.0,10.1,90,0.08,,,-99.99,FreeWX 2.04,2013-05-10 17:29:00,
2013-05-10 13:34:00,38.5,35.8,29.82,NE,46,4.0,8.7,90,0.08,,,-99.99,FreeWX 2.04,2013-05-10 17:34:00,
2013-05-10 13:39:00,38.5,35.8,29.82,NE,46,4.0,10.5,90,0.08,,,-99.99,FreeWX 2.04,2013-05-10 17:39:00,
2013-05-10 13:44:00,38.5,35.8,29.82,NE,39,4.0,11.0,90,0.04,,,-99.99,FreeWX 2.04,2013-05-10 17:44:00,
2013-05-10 13:49:00,38.1,35.4,29.82,NE,43,4.0,11.2,90,0.04,,,-99.99,FreeWX 2.04,2013-05-10 17:49:00,
2013-05-10 13:54:00,38.3,35.6,29.82,NE,46,4.0,11.6,90,0.04,,,-99.99,FreeWX 2.04,2013-05-10 17:54:00,
2013-05-10 13:59:00,38.3,35.6,29.82,NE,40,4.0,8.3,90,0.04,,,-99.99,FreeWX 2.04,2013-05-10 17:59:00,
2013-05-10 14:04:00,38.3,35.6,29.82,NE,41,4.0,11.0,90,0.04,,,-99.99,FreeWX 2.04,2013-05-10 18:04:00,
2013-05-10 14:09:00,38.3,35.6,29.82,NE,44,4.0,11.2,90,0.04,,,-99.99,FreeWX 2.04,2013-05-10 18:09:00,
2013-05-10 14:14:00,38.1,35.4,29.82,NE,41,4.0,10.1,90,0.04,,,-99.99,FreeWX 2.04,2013-05-10 18:14:00,
2013-05-10 14:19:00,38.3,35.6,29.82,NE,49,4.0,11.6,90,0.04,,,-99.99,FreeWX 2.04,2013-05-10 18:19:00,
2013-05-10 14:24:00,38.1,35.4,29.82,NE,51,4.0,9.2,90,0.00,,,-99.99,FreeWX 2.04,2013-05-10 18:24:00,
2013-05-10 14:29:00,38.3,35.6,29.82,NE,44,4.0,11.6,90,0.00,,,-99.99,FreeWX 2.04,2013-05-10 18:29:00,
2013-05-10 14:34:00,38.3,35.6,29.82,NE,42,4.0,7.8,90,0.00,,,-99.99,FreeWX 2.04,2013-05-10 18:34:00,
2013-05-10 14:39:00,38.5,35.8,29.79,NE,46,4.0,13.0,90,0.00,,,-99.99,FreeWX 2.04,2013-05-10 18:39:00,
2013-05-10 14:44:00,38.5,35.8,29.79,NE,43,4.0,10.1,90,0.00,,,-99.99,FreeWX 2.04,2013-05-10 18:44:00,
2013-05-10 14:49:00,38.5,35.8,29.79,NE,42,4.0,10.1,90,0.00,,,-99.99,FreeWX 2.04,2013-05-10 18:49:00,
2013-05-10 14:54:00,38.5,35.8,29.79,NE,48,4.0,11.2,90,0.00,,,-99.99,FreeWX 2.04,2013-05-10 18:54:00,
2013-05-10 14:59:00,38.7,36.0,29.79,NE,50,4.0,10.1,90,0.00,,,-99.99,FreeWX 2.04,2013-05-10 18:59:00,
2013-05-10 15:04:00,38.7,36.0,29.79,NE,47,4.0,11.0,90,0.04,,,-99.99,FreeWX 2.04,2013-05-10 19:04:00,
2013-05-10 15:09:00,38.7,36.0,29.82,NE,40,3.0,9.2,90,0.04,,,-99.99,FreeWX 2.04,2013-05-10 19:09:00,
2013-05-10 15:14:00,38.7,36.0,29.82,NNE,28,3.0,11.0,90,0.04,,,-99.99,FreeWX 2.04,2013-05-10 19:14:00,
2013-05-10 15:19:00,38.7,36.0,29.82,NE,44,4.0,8.3,90,0.04,,,-99.99,FreeWX 2.04,2013-05-10 19:19:00,
2013-05-10 15:24:00,38.7,36.0,29.82,NE,56,4.0,10.1,90,0.04,,,-99.99,FreeWX 2.04,2013-05-10 19:24:00,
2013-05-10 15:29:00,38.8,36.1,29.82,NE,47,3.0,10.1,90,0.08,,,-99.99,FreeWX 2.04,2013-05-10 19:29:00,
2013-05-10 15:34:00,38.8,36.1,29.82,NE,53,3.0,10.5,90,0.08,,,-99.99,FreeWX 2.04,2013-05-10 19:34:00,
2013-05-10 15:39:00,39.0,36.3,29.82,NE,45,3.0,5.8,90,0.08,,,-99.99,FreeWX 2.04,2013-05-10 19:39:00,
2013-05-10 15:44:00,39.0,36.7,29.82,NE,37,3.0,11.2,91,0.08,,,-99.99,FreeWX 2.04,2013-05-10 19:44:00,
2013-05-10 15:49:00,38.7,36.0,29.82,NE,47,4.0,9.6,90,0.08,,,-99.99,FreeWX 2.04,2013-05-10 19:49:00,
2013-05-10 15:54:00,38.8,36.1,29.82,ENE,59,3.0,11.0,90,0.12,,,-99.99,FreeWX 2.04,2013-05-10 19:54:00,
2013-05-10 15:59:00,39.0,36.7,29.82,NE,56,3.0,6.9,91,0.08,,,-99.99,FreeWX 2.04,2013-05-10 19:59:00,
2013-05-10 16:04:00,39.2,36.9,29.82,NE,43,3.0,7.4,91,0.08,,,-99.99,FreeWX 2.04,2013-05-10 20:04:00,
2013-05-10 16:09:00,39.2,36.9,29.79,NE,47,4.0,8.3,91,0.12,,,-99.99,FreeWX 2.04,2013-05-10 20:09:00,
2013-05-10 16:14:00,39.4,37.0,29.79,NE,54,4.0,11.0,91,0.12,,,-99.99,FreeWX 2.04,2013-05-10 20:14:00,
2013-05-10 16:19:00,39.4,37.0,29.79,NE,43,4.0,10.5,91,0.12,,,-99.99,FreeWX 2.04,2013-05-10 20:19:00,
2013-05-10 16:24:00,39.7,37.4,29.79,NE,51,4.0,9.6,91,0.12,,,-99.99,FreeWX 2.04,2013-05-10 20:24:00,
2013-05-10 16:29:00,40.5,38.1,29.79,NE,56,3.0,8.7,91,0.08,,,-99.99,FreeWX 2.04,2013-05-10 20:29:00,
2013-05-10 16:34:00,40.3,37.9,29.79,NE,55,4.0,8.7,91,0.12,,,-99.99,FreeWX 2.04,2013-05-10 20:34:00,
2013-05-10 16:39:00,40.1,37.8,29.79,ENE,58,4.0,7.8,91,0.12,,,-99.99,FreeWX 2.04,2013-05-10 20:39:00,
2013-05-10 16:44:00,40.1,37.8,29.79,ENE,58,4.0,10.1,91,0.12,,,-99.99,FreeWX 2.04,2013-05-10 20:44:00,
2013-05-10 16:49:00,40.5,38.1,29.79,NE,43,4.0,8.3,91,0.12,,,-99.99,FreeWX 2.04,2013-05-10 20:49:00,
2013-05-10 16:54:00,40.3,37.9,29.79,NNE,28,4.0,9.6,91,0.08,,,-99.99,FreeWX 2.04,2013-05-10 20:54:00,
2013-05-10 16:59:00,39.9,37.8,29.79,NE,34,4.0,9.6,92,0.08,,,-99.99,FreeWX 2.04,2013-05-10 20:59:00,
2013-05-10 17:04:00,39.9,37.6,29.79,NNE,28,4.0,8.3,91,0.04,,,-99.99,FreeWX 2.04,2013-05-10 21:04:00,
2013-05-10 17:09:00,39.7,37.4,29.79,NNE,30,3.0,8.7,91,0.04,,,-99.99,FreeWX 2.04,2013-05-10 21:09:00,
2013-05-10 17:14:00,39.9,37.6,29.79,NE,41,3.0,6.9,91,0.04,,,-99.99,FreeWX 2.04,2013-05-10 21:14:00,
2013-05-10 17:19:00,39.9,37.6,29.79,NE,48,4.0,12.1,91,0.04,,,-99.99,FreeWX 2.04,2013-05-10 21:19:00,
2013-05-10 17:24:00,39.9,37.6,29.79,NE,54,3.0,7.8,91,0.04,,,-99.99,FreeWX 2.04,2013-05-10 21:24:00,
2013-05-10 17:29:00,39.7,37.4,29.79,NE,40,3.0,10.5,91,0.04,,,-99.99,FreeWX 2.04,2013-05-10 21:29:00,
2013-05-10 17:34:00,39.7,37.4,29.79,NE,40,3.0,5.4,91,0.00,,,-99.99,FreeWX 2.04,2013-05-10 21:34:00,
2013-05-10 17:39:00,39.6,36.9,29.79,NE,47,3.0,8.3,90,0.00,,,-99.99,FreeWX 2.04,2013-05-10 21:39:00,
2013-05-10 17:44:00,39.4,36.7,29.79,NE,36,3.0,7.8,90,0.00,,,-99.99,FreeWX 2.04,2013-05-10 21:44:00,
2013-05-10 17:49:00,39.6,36.9,29.79,NNE,17,3.0,10.1,90,0.00,,,-99.99,FreeWX 2.04,2013-05-10 21:49:00,
2013-05-10 17:54:00,39.7,37.0,29.79,NNE,30,3.0,8.3,90,0.00,,,-99.99,FreeWX 2.04,2013-05-10 21:54:00,
2013-05-10 17:59:00,39.6,36.9,29.79,NNE,32,3.0,11.2,90,0.00,,,-99.99,FreeWX 2.04,2013-05-10 21:59:00,
2013-05-10 18:04:00,39.6,36.9,29.79,NNE,20,3.0,7.4,90,0.00,,,-99.99,FreeWX 2.04,2013-05-10 22:04:00,
2013-05-10 18:09:00,39.6,36.9,29.79,NNE,20,2.0,8.3,90,0.00,,,-99.99,FreeWX 2.04,2013-05-10 22:09:00,
2013-05-10 18:14:00,39.6,36.9,29.79,NNE,22,3.0,7.8,90,0.00,,,-99.99,FreeWX 2.04,2013-05-10 22:14:00,
2013-05-10 18:19:00,39.6,36.9,29.79,NNE,28,2.0,7.4,90,0.00,,,-99.99,FreeWX 2.04,2013-05-10 22:19:00,
2013-05-10 18:24:00,39.6,36.9,29.79,NNE,32,2.0,7.4,90,0.00,,,-99.99,FreeWX 2.04,2013-05-10 22:24:00,
2013-05-10 18:29:00,39.6,36.9,29.79,NNE,25,2.0,7.4,90,0.00,,,-99.99,FreeWX 2.04,2013-05-10 22:29:00,
2013-05-10 18:34:00,39.4,36.7,29.79,NNE,27,2.0,6.7,90,0.00,,,-99.99,FreeWX 2.04,2013-05-10 22:34:00,
2013-05-10 18:39:00,39.4,36.7,29.79,NNE,33,2.0,6.3,90,0.00,,,-99.99,FreeWX 2.04,2013-05-10 22:39:00,
2013-05-10 18:44:00,39.4,36.7,29.79,NNE,33,2.0,5.4,90,0.00,,,-99.99,FreeWX 2.04,2013-05-10 22:44:00,
2013-05-10 18:49:00,39.2,36.5,29.79,NE,45,2.0,5.8,90,0.00,,,-99.99,FreeWX 2.04,2013-05-10 22:49:00,
2013-05-10 18:54:00,39.0,36.3,29.79,NNE,27,2.0,7.4,90,0.00,,,-99.99,FreeWX 2.04,2013-05-10 22:54:00,
2013-05-10 18:59:00,39.0,36.3,29.79,North,9,2.0,6.9,90,0.00,,,-99.99,FreeWX 2.04,2013-05-10 22:59:00,
2013-05-10 19:04:00,39.2,36.5,29.79,NE,42,1.0,6.3,90,0.00,,,-99.99,FreeWX 2.04,2013-05-10 23:04:00,
2013-05-10 19:09:00,39.0,36.3,29.79,NE,47,1.0,5.8,90,0.00,,,-99.99,FreeWX 2.04,2013-05-10 23:09:00,
2013-05-10 19:14:00,39.0,36.3,29.79,NNE,19,1.0,6.7,90,0.00,,,-99.99,FreeWX 2.04,2013-05-10 23:14:00,
2013-05-10 19:20:00,39.0,36.3,29.79,NNE,18,1.0,5.4,90,0.00,,,-99.99,FreeWX 2.04,2013-05-10 23:20:00,
2013-05-10 19:25:00,38.8,36.1,29.79,NNE,20,1.0,6.3,90,0.00,,,-99.99,FreeWX 2.04,2013-05-10 23:25:00,
2013-05-10 19:30:00,38.8,36.1,29.79,NNE,22,2.0,6.3,90,0.00,,,-99.99,FreeWX 2.04,2013-05-10 23:30:00,
2013-05-10 19:35:00,38.8,36.1,29.79,NNE,17,2.0,5.4,90,0.00,,,-99.99,FreeWX 2.04,2013-05-10 23:35:00,
2013-05-10 19:40:00,38.8,36.1,29.79,NNE,22,1.0,4.5,90,0.00,,,-99.99,FreeWX 2.04,2013-05-10 23:40:00,
2013-05-10 19:45:00,38.8,36.1,29.79,North,6,1.0,4.5,90,0.00,,,-99.99,FreeWX 2.04,2013-05-10 23:45:00,
2013-05-10 19:50:00,38.8,36.1,29.79,NNW,348,1.0,4.9,90,0.00,,,-99.99,FreeWX 2.04,2013-05-10 23:50:00,
2013-05-10 19:55:00,38.8,36.1,29.79,North,-999,0.0,6.3,90,0.00,,,-99.99,FreeWX 2.04,2013-05-10 23:55:00,
2013-05-10 20:00:00,38.7,36.0,29.79,NNE,30,1.0,6.7,90,0.00,,,-99.99,FreeWX 2.04,2013-05-11 00:00:00,
2013-05-10 20:05:00,38.8,36.1,29.79,NE,35,2.0,5.4,90,0.00,,,-99.99,FreeWX 2.04,2013-05-11 00:05:00,
2013-05-10 20:10:00,38.7,36.0,29.79,NNE,32,1.0,5.8,90,0.00,,,-99.99,FreeWX 2.04,2013-05-11 00:10:00,
2013-05-10 20:15:00,38.7,35.8,29.79,NNE,31,1.0,6.9,89,0.00,,,-99.99,FreeWX 2.04,2013-05-11 00:15:00,
2013-05-10 20:20:00,38.7,35.8,29.79,ENE,57,2.0,7.4,89,0.00,,,-99.99,FreeWX 2.04,2013-05-11 00:20:00,
2013-05-10 20:25:00,38.7,35.8,29.79,ENE,63,2.0,7.4,89,0.00,,,-99.99,FreeWX 2.04,2013-05-11 00:25:00,
2013-05-10 20:30:00,38.7,35.8,29.79,NE,34,2.0,5.8,89,0.00,,,-99.99,FreeWX 2.04,2013-05-11 00:30:00,
2013-05-10 20:35:00,38.5,35.6,29.79,NNE,20,2.0,6.9,89,0.00,,,-99.99,FreeWX 2.04,2013-05-11 00:35:00,
2013-05-10 20:40:00,38.5,35.6,29.79,North,10,2.0,7.4,89,0.00,,,-99.99,FreeWX 2.04,2013-05-11 00:40:00,
2013-05-10 20:45:00,38.5,35.6,29.79,North,355,2.0,6.7,89,0.00,,,-99.99,FreeWX 2.04,2013-05-11 00:45:00,
2013-05-10 20:50:00,38.5,35.6,29.82,North,6,2.0,6.9,89,0.00,,,-99.99,FreeWX 2.04,2013-05-11 00:50:00,
2013-05-10 20:55:00,38.5,35.6,29.82,NE,37,2.0,4.5,89,0.00,,,-99.99,FreeWX 2.04,2013-05-11 00:55:00,
2013-05-10 21:00:00,38.5,35.6,29.82,NE,42,1.0,8.3,89,0.00,,,-99.99,FreeWX 2.04,2013-05-11 01:00:00,
2013-05-10 21:05:00,38.7,35.8,29.82,NE,46,2.0,6.3,89,0.00,,,-99.99,FreeWX 2.04,2013-05-11 01:05:00,
2013-05-10 21:10:00,38.7,36.0,29.82,ENE,63,1.0,4.9,90,0.00,,,-99.99,FreeWX 2.04,2013-05-11 01:10:00,
2013-05-10 21:15:00,38.7,36.0,29.82,NE,46,1.0,7.4,90,0.00,,,-99.99,FreeWX 2.04,2013-05-11 01:15:00,
2013-05-10 21:20:00,38.7,36.0,29.82,NE,43,1.0,6.9,90,0.00,,,-99.99,FreeWX 2.04,2013-05-11 01:20:00,
2013-05-10 21:25:00,38.7,36.0,29.82,NNE,24,1.0,5.4,90,0.00,,,-99.99,FreeWX 2.04,2013-05-11 01:25:00,
2013-05-10 21:30:00,38.7,36.0,29.82,North,352,1.0,6.7,90,0.00,,,-99.99,FreeWX 2.04,2013-05-11 01:30:00,
2013-05-10 21:35:00,38.7,36.0,29.82,NE,41,1.0,6.7,90,0.00,,,-99.99,FreeWX 2.04,2013-05-11 01:35:00,
2013-05-10 21:40:00,38.7,36.0,29.82,NE,56,1.0,4.9,90,0.00,,,-99.99,FreeWX 2.04,2013-05-11 01:40:00,
2013-05-10 21:45:00,38.7,36.0,29.82,North,9,1.0,4.5,90,0.00,,,-99.99,FreeWX 2.04,2013-05-11 01:45:00,
2013-05-10 21:50:00,38.7,36.0,29.82,North,350,1.0,6.7,90,0.00,,,-99.99,FreeWX 2.04,2013-05-11 01:50:00,